sensor_id;sensor_type;location;lat;lon;timestamp;P1;durP1;ratioP1;P2;durP2;ratioP2
16916;SDS011;8575;52.418;13.492;2022-11-02T00:00:05;900.20;;;838.13;;
16916;SDS011;8575;52.418;13.492;2022-11-02T00:00:36;906.08;;;843.67;;
16916;SDS011;8575;52.418;13.492;2022-11-02T00:01:00;900.50;;;838.33;;
16916;SDS011;8575;52.418;13.492;2022-11-02T00:01:25;908.95;;;846.55;;
16916;SDS011;8575;52.418;13.492;2022-11-02T00:01:49;910.80;;;848.28;;
16916;SDS011;8575;52.418;13.492;2022-11-02T00:02:10;908.45;;;846.00;;
16916;SDS011;8575;52.418;13.492;2022-11-02T00:02:31;912.45;;;849.90;;
16916;SDS011;8575;52.418;13.492;2022-11-02T00:02:52;912.83;;;850.25;;
16916;SDS011;8575;52.418;13.492;2022-11-02T00:03:16;906.13;;;843.80;;
16916;SDS011;8575;52.418;13.492;2022-11-02T00:03:37;903.22;;;840.80;;
16916;SDS011;8575;52.418;13.492;2022-11-02T00:03:58;905.22;;;842.75;;
16916;SDS011;8575;52.418;13.492;2022-11-02T00:04:19;899.08;;;836.88;;
16916;SDS011;8575;52.418;13.492;2022-11-02T00:04:41;898.40;;;836.22;;
16916;SDS011;8575;52.418;13.492;2022-11-02T00:05:03;906.72;;;844.45;;
16916;SDS011;8575;52.418;13.492;2022-11-02T00:05:24;900.35;;;838.28;;
16916;SDS011;8575;52.418;13.492;2022-11-02T00:05:45;921.55;;;858.75;;
16916;SDS011;8575;52.418;13.492;2022-11-02T00:06:08;900.70;;;838.63;;
16916;SDS011;8575;52.418;13.492;2022-11-02T00:06:29;901.15;;;839.00;;
16916;SDS011;8575;52.418;13.492;2022-11-02T00:06:50;894.25;;;832.15;;
16916;SDS011;8575;52.418;13.492;2022-11-02T00:07:12;904.80;;;842.20;;
16916;SDS011;8575;52.418;13.492;2022-11-02T00:07:35;907.63;;;845.10;;
16916;SDS011;8575;52.418;13.492;2022-11-02T00:07:56;914.05;;;851.42;;
16916;SDS011;8575;52.418;13.492;2022-11-02T00:08:17;907.33;;;844.90;;
16916;SDS011;8575;52.418;13.492;2022-11-02T00:08:39;893.00;;;830.95;;
16916;SDS011;8575;52.418;13.492;2022-11-02T00:09:01;900.97;;;838.70;;
16916;SDS011;8575;52.418;13.492;2022-11-02T00:09:22;902.88;;;840.63;;
16916;SDS011;8575;52.418;13.492;2022-11-02T00:09:43;896.25;;;834.15;;
16916;SDS011;8575;52.418;13.492;2022-11-02T00:10:05;903.10;;;840.83;;
16916;SDS011;8575;52.418;13.492;2022-11-02T00:10:27;894.03;;;832.05;;
16916;SDS011;8575;52.418;13.492;2022-11-02T00:10:50;909.63;;;847.03;;
16916;SDS011;8575;52.418;13.492;2022-11-02T00:11:13;910.17;;;847.67;;
16916;SDS011;8575;52.418;13.492;2022-11-02T00:11:39;878.78;;;817.28;;
16916;SDS011;8575;52.418;13.492;2022-11-02T00:12:01;884.73;;;823.03;;
16916;SDS011;8575;52.418;13.492;2022-11-02T00:12:23;884.83;;;823.10;;
16916;SDS011;8575;52.418;13.492;2022-11-02T00:12:44;899.85;;;837.60;;
16916;SDS011;8575;52.418;13.492;2022-11-02T00:13:05;904.58;;;842.22;;
16916;SDS011;8575;52.418;13.492;2022-11-02T00:13:28;899.85;;;837.78;;
16916;SDS011;8575;52.418;13.492;2022-11-02T00:13:49;891.30;;;829.42;;
16916;SDS011;8575;52.418;13.492;2022-11-02T00:14:10;879.95;;;818.47;;
16916;SDS011;8575;52.418;13.492;2022-11-02T00:14:31;868.40;;;807.40;;
16916;SDS011;8575;52.418;13.492;2022-11-02T00:14:53;879.40;;;818.00;;
16916;SDS011;8575;52.418;13.492;2022-11-02T00:15:14;901.17;;;839.20;;
16916;SDS011;8575;52.418;13.492;2022-11-02T00:15:35;882.78;;;821.35;;
16916;SDS011;8575;52.418;13.492;2022-11-02T00:15:57;888.60;;;826.92;;
16916;SDS011;8575;52.418;13.492;2022-11-02T00:16:21;892.47;;;830.53;;
16916;SDS011;8575;52.418;13.492;2022-11-02T00:16:44;884.42;;;822.53;;
16916;SDS011;8575;52.418;13.492;2022-11-02T00:17:06;880.75;;;819.17;;
16916;SDS011;8575;52.418;13.492;2022-11-02T00:17:27;885.53;;;823.95;;
16916;SDS011;8575;52.418;13.492;2022-11-02T00:17:49;879.90;;;818.47;;
16916;SDS011;8575;52.418;13.492;2022-11-02T00:18:15;883.80;;;822.25;;
16916;SDS011;8575;52.418;13.492;2022-11-02T00:18:38;900.75;;;838.55;;
16916;SDS011;8575;52.418;13.492;2022-11-02T00:18:59;919.63;;;856.97;;
16916;SDS011;8575;52.418;13.492;2022-11-02T00:19:21;921.08;;;858.38;;
16916;SDS011;8575;52.418;13.492;2022-11-02T00:19:42;929.40;;;866.47;;
16916;SDS011;8575;52.418;13.492;2022-11-02T00:20:04;932.42;;;868.15;;
16916;SDS011;8575;52.418;13.492;2022-11-02T00:20:26;917.17;;;854.03;;
16916;SDS011;8575;52.418;13.492;2022-11-02T00:20:47;909.88;;;847.53;;
16916;SDS011;8575;52.418;13.492;2022-11-02T00:21:08;917.92;;;855.25;;
16916;SDS011;8575;52.418;13.492;2022-11-02T00:21:31;919.13;;;856.50;;
16916;SDS011;8575;52.418;13.492;2022-11-02T00:21:53;910.10;;;847.78;;
16916;SDS011;8575;52.418;13.492;2022-11-02T00:22:16;922.95;;;860.25;;
16916;SDS011;8575;52.418;13.492;2022-11-02T00:22:37;920.15;;;857.55;;
16916;SDS011;8575;52.418;13.492;2022-11-02T00:22:58;924.05;;;861.15;;
16916;SDS011;8575;52.418;13.492;2022-11-02T00:23:22;929.20;;;866.30;;
16916;SDS011;8575;52.418;13.492;2022-11-02T00:23:43;910.03;;;847.63;;
16916;SDS011;8575;52.418;13.492;2022-11-02T00:24:05;918.70;;;856.03;;
16916;SDS011;8575;52.418;13.492;2022-11-02T00:24:28;918.28;;;855.67;;
16916;SDS011;8575;52.418;13.492;2022-11-02T00:24:50;926.05;;;863.03;;
16916;SDS011;8575;52.418;13.492;2022-11-02T00:25:12;919.47;;;856.67;;
16916;SDS011;8575;52.418;13.492;2022-11-02T00:25:36;931.75;;;868.60;;
16916;SDS011;8575;52.418;13.492;2022-11-02T00:25:59;925.33;;;862.42;;
16916;SDS011;8575;52.418;13.492;2022-11-02T00:26:21;923.83;;;861.00;;
16916;SDS011;8575;52.418;13.492;2022-11-02T00:26:42;919.80;;;857.10;;
16916;SDS011;8575;52.418;13.492;2022-11-02T00:27:03;918.22;;;855.35;;
16916;SDS011;8575;52.418;13.492;2022-11-02T00:27:26;921.78;;;858.90;;
16916;SDS011;8575;52.418;13.492;2022-11-02T00:27:48;909.42;;;847.13;;
16916;SDS011;8575;52.418;13.492;2022-11-02T00:28:09;915.38;;;852.95;;
16916;SDS011;8575;52.418;13.492;2022-11-02T00:28:30;913.15;;;850.63;;
16916;SDS011;8575;52.418;13.492;2022-11-02T00:28:52;910.97;;;848.50;;
16916;SDS011;8575;52.418;13.492;2022-11-02T00:29:14;913.10;;;850.60;;
16916;SDS011;8575;52.418;13.492;2022-11-02T00:29:36;921.25;;;858.45;;
16916;SDS011;8575;52.418;13.492;2022-11-02T00:29:57;929.08;;;866.03;;
16916;SDS011;8575;52.418;13.492;2022-11-02T00:30:19;920.03;;;857.28;;
16916;SDS011;8575;52.418;13.492;2022-11-02T00:30:41;929.60;;;866.50;;
16916;SDS011;8575;52.418;13.492;2022-11-02T00:31:02;925.33;;;862.42;;
16916;SDS011;8575;52.418;13.492;2022-11-02T00:31:23;905.17;;;842.90;;
16916;SDS011;8575;52.418;13.492;2022-11-02T00:31:45;929.33;;;866.22;;
16916;SDS011;8575;52.418;13.492;2022-11-02T00:32:07;931.90;;;868.80;;
16916;SDS011;8575;52.418;13.492;2022-11-02T00:32:28;936.30;;;873.05;;
16916;SDS011;8575;52.418;13.492;2022-11-02T00:32:49;913.15;;;850.58;;
16916;SDS011;8575;52.418;13.492;2022-11-02T00:33:12;924.80;;;861.97;;
16916;SDS011;8575;52.418;13.492;2022-11-02T00:33:36;931.60;;;868.60;;
16916;SDS011;8575;52.418;13.492;2022-11-02T00:33:57;928.50;;;865.60;;
16916;SDS011;8575;52.418;13.492;2022-11-02T00:34:22;924.08;;;861.28;;
16916;SDS011;8575;52.418;13.492;2022-11-02T00:34:43;936.20;;;872.92;;
16916;SDS011;8575;52.418;13.492;2022-11-02T00:35:06;935.15;;;871.85;;
16916;SDS011;8575;52.418;13.492;2022-11-02T00:35:27;933.15;;;870.03;;
16916;SDS011;8575;52.418;13.492;2022-11-02T00:35:49;919.97;;;857.22;;
16916;SDS011;8575;52.418;13.492;2022-11-02T00:36:10;925.08;;;862.10;;
16916;SDS011;8575;52.418;13.492;2022-11-02T00:36:33;915.92;;;853.30;;
16916;SDS011;8575;52.418;13.492;2022-11-02T00:36:54;926.30;;;863.22;;
16916;SDS011;8575;52.418;13.492;2022-11-02T00:37:15;921.50;;;858.38;;
16916;SDS011;8575;52.418;13.492;2022-11-02T00:37:38;919.22;;;856.38;;
16916;SDS011;8575;52.418;13.492;2022-11-02T00:38:00;919.45;;;856.55;;
16916;SDS011;8575;52.418;13.492;2022-11-02T00:38:21;927.45;;;864.40;;
16916;SDS011;8575;52.418;13.492;2022-11-02T00:38:42;926.95;;;863.83;;
16916;SDS011;8575;52.418;13.492;2022-11-02T00:39:03;929.65;;;866.47;;
16916;SDS011;8575;52.418;13.492;2022-11-02T00:39:25;916.55;;;853.78;;
16916;SDS011;8575;52.418;13.492;2022-11-02T00:39:47;922.80;;;859.78;;
16916;SDS011;8575;52.418;13.492;2022-11-02T00:40:09;935.08;;;871.63;;
16916;SDS011;8575;52.418;13.492;2022-11-02T00:40:30;922.03;;;859.17;;
16916;SDS011;8575;52.418;13.492;2022-11-02T00:40:53;929.50;;;866.42;;
16916;SDS011;8575;52.418;13.492;2022-11-02T00:41:14;933.92;;;870.70;;
16916;SDS011;8575;52.418;13.492;2022-11-02T00:41:35;932.28;;;869.08;;
16916;SDS011;8575;52.418;13.492;2022-11-02T00:41:56;928.47;;;865.40;;
16916;SDS011;8575;52.418;13.492;2022-11-02T00:42:19;929.83;;;866.72;;
16916;SDS011;8575;52.418;13.492;2022-11-02T00:42:40;936.30;;;872.90;;
16916;SDS011;8575;52.418;13.492;2022-11-02T00:43:01;926.80;;;863.70;;
16916;SDS011;8575;52.418;13.492;2022-11-02T00:43:22;923.90;;;860.95;;
16916;SDS011;8575;52.418;13.492;2022-11-02T00:43:44;917.97;;;855.13;;
16916;SDS011;8575;52.418;13.492;2022-11-02T00:44:06;918.45;;;855.67;;
16916;SDS011;8575;52.418;13.492;2022-11-02T00:44:27;926.45;;;863.45;;
16916;SDS011;8575;52.418;13.492;2022-11-02T00:44:48;924.72;;;861.83;;
16916;SDS011;8575;52.418;13.492;2022-11-02T00:45:11;917.42;;;854.78;;
16916;SDS011;8575;52.418;13.492;2022-11-02T00:45:32;917.53;;;854.88;;
16916;SDS011;8575;52.418;13.492;2022-11-02T00:45:53;921.67;;;858.83;;
16916;SDS011;8575;52.418;13.492;2022-11-02T00:46:16;924.92;;;861.92;;
16916;SDS011;8575;52.418;13.492;2022-11-02T00:46:38;920.85;;;857.95;;
16916;SDS011;8575;52.418;13.492;2022-11-02T00:46:59;920.33;;;857.30;;
16916;SDS011;8575;52.418;13.492;2022-11-02T00:47:20;921.35;;;858.25;;
16916;SDS011;8575;52.418;13.492;2022-11-02T00:47:41;916.53;;;853.78;;
16916;SDS011;8575;52.418;13.492;2022-11-02T00:48:04;921.35;;;858.45;;
16916;SDS011;8575;52.418;13.492;2022-11-02T00:48:25;928.70;;;865.63;;
16916;SDS011;8575;52.418;13.492;2022-11-02T00:48:49;917.28;;;854.47;;
16916;SDS011;8575;52.418;13.492;2022-11-02T00:49:11;921.38;;;858.50;;
16916;SDS011;8575;52.418;13.492;2022-11-02T00:49:32;920.50;;;857.70;;
16916;SDS011;8575;52.418;13.492;2022-11-02T00:49:55;921.17;;;858.35;;
16916;SDS011;8575;52.418;13.492;2022-11-02T00:50:16;918.28;;;855.55;;
16916;SDS011;8575;52.418;13.492;2022-11-02T00:50:38;919.80;;;856.97;;
16916;SDS011;8575;52.418;13.492;2022-11-02T00:50:59;926.53;;;863.53;;
16916;SDS011;8575;52.418;13.492;2022-11-02T00:51:22;925.80;;;862.90;;
16916;SDS011;8575;52.418;13.492;2022-11-02T00:51:44;915.40;;;852.70;;
16916;SDS011;8575;52.418;13.492;2022-11-02T00:52:08;916.03;;;853.22;;
16916;SDS011;8575;52.418;13.492;2022-11-02T00:52:29;918.17;;;855.40;;
16916;SDS011;8575;52.418;13.492;2022-11-02T00:52:51;920.80;;;857.90;;
16916;SDS011;8575;52.418;13.492;2022-11-02T00:53:13;928.17;;;865.00;;
16916;SDS011;8575;52.418;13.492;2022-11-02T00:53:42;920.00;;;857.20;;
16916;SDS011;8575;52.418;13.492;2022-11-02T00:54:04;910.72;;;848.28;;
16916;SDS011;8575;52.418;13.492;2022-11-02T00:54:26;917.38;;;854.63;;
16916;SDS011;8575;52.418;13.492;2022-11-02T00:54:49;918.10;;;855.38;;
16916;SDS011;8575;52.418;13.492;2022-11-02T00:55:10;922.88;;;860.08;;
16916;SDS011;8575;52.418;13.492;2022-11-02T00:55:34;926.15;;;863.20;;
16916;SDS011;8575;52.418;13.492;2022-11-02T00:55:57;917.55;;;854.85;;
16916;SDS011;8575;52.418;13.492;2022-11-02T00:56:19;919.75;;;856.97;;
16916;SDS011;8575;52.418;13.492;2022-11-02T00:56:40;916.72;;;854.00;;
16916;SDS011;8575;52.418;13.492;2022-11-02T00:57:02;923.17;;;859.97;;
16916;SDS011;8575;52.418;13.492;2022-11-02T00:57:26;915.38;;;852.63;;
16916;SDS011;8575;52.418;13.492;2022-11-02T00:57:48;915.70;;;852.92;;
16916;SDS011;8575;52.418;13.492;2022-11-02T00:58:10;924.88;;;861.83;;
16916;SDS011;8575;52.418;13.492;2022-11-02T00:58:31;933.92;;;870.63;;
16916;SDS011;8575;52.418;13.492;2022-11-02T00:58:53;912.63;;;849.97;;
16916;SDS011;8575;52.418;13.492;2022-11-02T00:59:15;908.70;;;846.25;;
16916;SDS011;8575;52.418;13.492;2022-11-02T00:59:36;909.58;;;847.00;;
16916;SDS011;8575;52.418;13.492;2022-11-02T00:59:59;920.25;;;857.33;;
16916;SDS011;8575;52.418;13.492;2022-11-02T01:00:20;919.65;;;856.80;;
16916;SDS011;8575;52.418;13.492;2022-11-02T01:00:41;917.10;;;854.30;;
16916;SDS011;8575;52.418;13.492;2022-11-02T01:01:03;914.72;;;852.03;;
16916;SDS011;8575;52.418;13.492;2022-11-02T01:01:26;916.03;;;853.30;;
16916;SDS011;8575;52.418;13.492;2022-11-02T01:01:47;922.58;;;859.53;;
16916;SDS011;8575;52.418;13.492;2022-11-02T01:02:09;915.17;;;852.58;;
16916;SDS011;8575;52.418;13.492;2022-11-02T01:02:31;929.40;;;866.30;;
16916;SDS011;8575;52.418;13.492;2022-11-02T01:02:53;917.95;;;855.08;;
16916;SDS011;8575;52.418;13.492;2022-11-02T01:03:17;914.25;;;851.58;;
16916;SDS011;8575;52.418;13.492;2022-11-02T01:03:38;911.65;;;849.00;;
16916;SDS011;8575;52.418;13.492;2022-11-02T01:04:02;926.80;;;863.63;;
16916;SDS011;8575;52.418;13.492;2022-11-02T01:04:24;919.20;;;856.28;;
16916;SDS011;8575;52.418;13.492;2022-11-02T01:04:45;919.22;;;856.30;;
16916;SDS011;8575;52.418;13.492;2022-11-02T01:05:07;919.38;;;856.53;;
16916;SDS011;8575;52.418;13.492;2022-11-02T01:05:29;929.38;;;866.17;;
16916;SDS011;8575;52.418;13.492;2022-11-02T01:05:51;921.33;;;858.42;;
16916;SDS011;8575;52.418;13.492;2022-11-02T01:06:12;912.25;;;849.75;;
16916;SDS011;8575;52.418;13.492;2022-11-02T01:06:34;917.22;;;854.58;;
16916;SDS011;8575;52.418;13.492;2022-11-02T01:06:57;930.40;;;867.05;;
16916;SDS011;8575;52.418;13.492;2022-11-02T01:07:19;919.78;;;856.63;;
16916;SDS011;8575;52.418;13.492;2022-11-02T01:07:40;919.38;;;856.50;;
16916;SDS011;8575;52.418;13.492;2022-11-02T01:08:01;924.50;;;861.40;;
16916;SDS011;8575;52.418;13.492;2022-11-02T01:08:22;912.88;;;850.15;;
16916;SDS011;8575;52.418;13.492;2022-11-02T01:08:44;924.42;;;861.42;;
16916;SDS011;8575;52.418;13.492;2022-11-02T01:09:06;920.38;;;857.47;;
16916;SDS011;8575;52.418;13.492;2022-11-02T01:09:27;905.00;;;842.67;;
16916;SDS011;8575;52.418;13.492;2022-11-02T01:09:48;906.38;;;843.97;;
16916;SDS011;8575;52.418;13.492;2022-11-02T01:10:12;932.42;;;869.13;;
16916;SDS011;8575;52.418;13.492;2022-11-02T01:10:33;922.10;;;859.20;;
16916;SDS011;8575;52.418;13.492;2022-11-02T01:10:54;925.92;;;862.85;;
16916;SDS011;8575;52.418;13.492;2022-11-02T01:11:17;926.08;;;862.90;;
16916;SDS011;8575;52.418;13.492;2022-11-02T01:11:41;915.78;;;852.90;;
16916;SDS011;8575;52.418;13.492;2022-11-02T01:12:02;933.63;;;870.17;;
16916;SDS011;8575;52.418;13.492;2022-11-02T01:12:25;932.97;;;869.60;;
16916;SDS011;8575;52.418;13.492;2022-11-02T01:12:46;932.95;;;869.58;;
16916;SDS011;8575;52.418;13.492;2022-11-02T01:13:08;920.33;;;857.42;;
16916;SDS011;8575;52.418;13.492;2022-11-02T01:13:29;913.67;;;850.97;;
16916;SDS011;8575;52.418;13.492;2022-11-02T01:13:51;928.45;;;865.28;;
16916;SDS011;8575;52.418;13.492;2022-11-02T01:14:12;930.88;;;867.58;;
16916;SDS011;8575;52.418;13.492;2022-11-02T01:14:34;928.55;;;865.35;;
16916;SDS011;8575;52.418;13.492;2022-11-02T01:14:57;924.78;;;861.65;;
16916;SDS011;8575;52.418;13.492;2022-11-02T01:15:19;921.53;;;858.42;;
16916;SDS011;8575;52.418;13.492;2022-11-02T01:15:40;918.10;;;855.17;;
16916;SDS011;8575;52.418;13.492;2022-11-02T01:16:02;928.30;;;865.13;;
16916;SDS011;8575;52.418;13.492;2022-11-02T01:16:24;931.05;;;867.88;;
16916;SDS011;8575;52.418;13.492;2022-11-02T01:16:45;917.28;;;854.42;;
16916;SDS011;8575;52.418;13.492;2022-11-02T01:17:06;923.65;;;860.60;;
16916;SDS011;8575;52.418;13.492;2022-11-02T01:17:28;930.92;;;867.60;;
16916;SDS011;8575;52.418;13.492;2022-11-02T01:17:49;921.70;;;858.67;;
16916;SDS011;8575;52.418;13.492;2022-11-02T01:18:11;923.33;;;860.20;;
16916;SDS011;8575;52.418;13.492;2022-11-02T01:18:32;916.45;;;853.53;;
16916;SDS011;8575;52.418;13.492;2022-11-02T01:18:53;922.88;;;859.72;;
16916;SDS011;8575;52.418;13.492;2022-11-02T01:19:18;925.38;;;862.22;;
16916;SDS011;8575;52.418;13.492;2022-11-02T01:19:39;923.65;;;860.55;;
16916;SDS011;8575;52.418;13.492;2022-11-02T01:20:00;921.13;;;858.13;;
16916;SDS011;8575;52.418;13.492;2022-11-02T01:20:21;921.95;;;858.97;;
16916;SDS011;8575;52.418;13.492;2022-11-02T01:20:44;922.17;;;859.10;;
16916;SDS011;8575;52.418;13.492;2022-11-02T01:21:06;922.65;;;859.60;;
16916;SDS011;8575;52.418;13.492;2022-11-02T01:21:28;926.70;;;863.47;;
16916;SDS011;8575;52.418;13.492;2022-11-02T01:21:49;927.33;;;863.92;;
16916;SDS011;8575;52.418;13.492;2022-11-02T01:22:11;919.78;;;856.75;;
16916;SDS011;8575;52.418;13.492;2022-11-02T01:22:33;923.53;;;860.47;;
16916;SDS011;8575;52.418;13.492;2022-11-02T01:22:54;931.88;;;868.50;;
16916;SDS011;8575;52.418;13.492;2022-11-02T01:23:15;927.20;;;864.03;;
16916;SDS011;8575;52.418;13.492;2022-11-02T01:23:36;924.42;;;861.30;;
16916;SDS011;8575;52.418;13.492;2022-11-02T01:23:59;918.97;;;856.00;;
16916;SDS011;8575;52.418;13.492;2022-11-02T01:24:20;912.03;;;849.35;;
16916;SDS011;8575;52.418;13.492;2022-11-02T01:24:41;926.20;;;863.03;;
16916;SDS011;8575;52.418;13.492;2022-11-02T01:25:04;934.53;;;871.05;;
16916;SDS011;8575;52.418;13.492;2022-11-02T01:25:26;916.13;;;853.25;;
16916;SDS011;8575;52.418;13.492;2022-11-02T01:25:47;922.83;;;859.78;;
16916;SDS011;8575;52.418;13.492;2022-11-02T01:26:08;926.00;;;862.90;;
16916;SDS011;8575;52.418;13.492;2022-11-02T01:26:29;934.47;;;871.15;;
16916;SDS011;8575;52.418;13.492;2022-11-02T01:26:50;928.70;;;865.58;;
16916;SDS011;8575;52.418;13.492;2022-11-02T01:27:13;922.25;;;859.25;;
16916;SDS011;8575;52.418;13.492;2022-11-02T01:27:34;924.97;;;861.95;;
16916;SDS011;8575;52.418;13.492;2022-11-02T01:27:55;927.55;;;864.38;;
16916;SDS011;8575;52.418;13.492;2022-11-02T01:28:16;926.38;;;863.08;;
16916;SDS011;8575;52.418;13.492;2022-11-02T01:28:39;922.30;;;859.17;;
16916;SDS011;8575;52.418;13.492;2022-11-02T01:29:00;917.72;;;854.90;;
16916;SDS011;8575;52.418;13.492;2022-11-02T01:29:24;916.78;;;853.95;;
16916;SDS011;8575;52.418;13.492;2022-11-02T01:29:46;909.92;;;847.30;;
16916;SDS011;8575;52.418;13.492;2022-11-02T01:30:09;904.28;;;841.88;;
16916;SDS011;8575;52.418;13.492;2022-11-02T01:30:31;913.15;;;850.42;;
16916;SDS011;8575;52.418;13.492;2022-11-02T01:30:53;924.40;;;861.22;;
16916;SDS011;8575;52.418;13.492;2022-11-02T01:31:14;927.95;;;864.75;;
16916;SDS011;8575;52.418;13.492;2022-11-02T01:31:36;922.13;;;859.10;;
16916;SDS011;8575;52.418;13.492;2022-11-02T01:31:57;917.83;;;854.92;;
16916;SDS011;8575;52.418;13.492;2022-11-02T01:32:18;915.03;;;852.13;;
16916;SDS011;8575;52.418;13.492;2022-11-02T01:32:40;920.70;;;857.60;;
16916;SDS011;8575;52.418;13.492;2022-11-02T01:33:03;917.75;;;854.95;;
16916;SDS011;8575;52.418;13.492;2022-11-02T01:33:26;929.25;;;866.03;;
16916;SDS011;8575;52.418;13.492;2022-11-02T01:33:48;921.08;;;858.05;;
16916;SDS011;8575;52.418;13.492;2022-11-02T01:34:10;913.47;;;850.70;;
16916;SDS011;8575;52.418;13.492;2022-11-02T01:34:33;905.30;;;842.85;;
16916;SDS011;8575;52.418;13.492;2022-11-02T01:34:54;914.72;;;851.90;;
16916;SDS011;8575;52.418;13.492;2022-11-02T01:35:15;928.72;;;865.42;;
16916;SDS011;8575;52.418;13.492;2022-11-02T01:35:39;924.58;;;861.45;;
16916;SDS011;8575;52.418;13.492;2022-11-02T01:36:01;924.72;;;861.65;;
16916;SDS011;8575;52.418;13.492;2022-11-02T01:36:24;913.92;;;851.35;;
16916;SDS011;8575;52.418;13.492;2022-11-02T01:36:46;911.42;;;848.83;;
16916;SDS011;8575;52.418;13.492;2022-11-02T01:37:08;920.75;;;857.63;;
16916;SDS011;8575;52.418;13.492;2022-11-02T01:37:29;918.25;;;855.35;;
16916;SDS011;8575;52.418;13.492;2022-11-02T01:37:51;897.45;;;835.20;;
16916;SDS011;8575;52.418;13.492;2022-11-02T01:38:13;907.95;;;845.38;;
16916;SDS011;8575;52.418;13.492;2022-11-02T01:38:34;919.35;;;856.35;;
16916;SDS011;8575;52.418;13.492;2022-11-02T01:38:55;915.10;;;852.22;;
16916;SDS011;8575;52.418;13.492;2022-11-02T01:39:17;912.70;;;850.03;;
16916;SDS011;8575;52.418;13.492;2022-11-02T01:39:39;904.17;;;841.67;;
16916;SDS011;8575;52.418;13.492;2022-11-02T01:40:00;906.20;;;843.67;;
16916;SDS011;8575;52.418;13.492;2022-11-02T01:40:21;913.85;;;851.10;;
16916;SDS011;8575;52.418;13.492;2022-11-02T01:40:46;908.65;;;846.03;;
16916;SDS011;8575;52.418;13.492;2022-11-02T01:41:09;907.03;;;844.50;;
16916;SDS011;8575;52.418;13.492;2022-11-02T01:41:31;919.10;;;856.20;;
16916;SDS011;8575;52.418;13.492;2022-11-02T01:41:52;920.97;;;858.03;;
16916;SDS011;8575;52.418;13.492;2022-11-02T01:42:15;912.15;;;849.50;;
16916;SDS011;8575;52.418;13.492;2022-11-02T01:42:39;905.53;;;843.08;;
16916;SDS011;8575;52.418;13.492;2022-11-02T01:43:00;908.70;;;846.15;;
16916;SDS011;8575;52.418;13.492;2022-11-02T01:43:36;914.00;;;851.22;;
16916;SDS011;8575;52.418;13.492;2022-11-02T01:44:02;913.70;;;850.88;;
16916;SDS011;8575;52.418;13.492;2022-11-02T01:44:27;908.73;;;846.20;;
16916;SDS011;8575;52.418;13.492;2022-11-02T01:44:49;914.95;;;852.20;;
16916;SDS011;8575;52.418;13.492;2022-11-02T01:45:13;920.92;;;857.95;;
16916;SDS011;8575;52.418;13.492;2022-11-02T01:45:34;913.95;;;851.22;;
16916;SDS011;8575;52.418;13.492;2022-11-02T01:45:57;905.80;;;843.30;;
16916;SDS011;8575;52.418;13.492;2022-11-02T01:46:22;909.35;;;846.95;;
16916;SDS011;8575;52.418;13.492;2022-11-02T01:46:45;911.28;;;848.75;;
16916;SDS011;8575;52.418;13.492;2022-11-02T01:47:11;911.45;;;848.60;;
16916;SDS011;8575;52.418;13.492;2022-11-02T01:47:34;915.50;;;852.60;;
16916;SDS011;8575;52.418;13.492;2022-11-02T01:47:58;916.15;;;853.30;;
16916;SDS011;8575;52.418;13.492;2022-11-02T01:48:20;910.30;;;847.67;;
16916;SDS011;8575;52.418;13.492;2022-11-02T01:48:47;909.15;;;846.53;;
16916;SDS011;8575;52.418;13.492;2022-11-02T01:49:11;919.20;;;856.30;;
16916;SDS011;8575;52.418;13.492;2022-11-02T01:49:36;916.70;;;853.90;;
16916;SDS011;8575;52.418;13.492;2022-11-02T01:50:00;916.35;;;853.55;;
16916;SDS011;8575;52.418;13.492;2022-11-02T01:50:24;915.47;;;852.65;;
16916;SDS011;8575;52.418;13.492;2022-11-02T01:50:47;896.30;;;834.15;;
16916;SDS011;8575;52.418;13.492;2022-11-02T01:51:10;906.38;;;843.83;;
16916;SDS011;8575;52.418;13.492;2022-11-02T01:51:34;916.38;;;853.33;;
16916;SDS011;8575;52.418;13.492;2022-11-02T01:51:58;906.28;;;843.47;;
16916;SDS011;8575;52.418;13.492;2022-11-02T01:52:23;909.90;;;847.15;;
16916;SDS011;8575;52.418;13.492;2022-11-02T01:52:47;909.30;;;846.67;;
16916;SDS011;8575;52.418;13.492;2022-11-02T01:53:09;921.10;;;858.17;;
16916;SDS011;8575;52.418;13.492;2022-11-02T01:53:30;916.08;;;853.33;;
16916;SDS011;8575;52.418;13.492;2022-11-02T01:53:54;916.75;;;853.90;;
16916;SDS011;8575;52.418;13.492;2022-11-02T01:54:19;907.88;;;845.40;;
16916;SDS011;8575;52.418;13.492;2022-11-02T01:54:43;916.60;;;853.80;;
16916;SDS011;8575;52.418;13.492;2022-11-02T01:55:09;903.97;;;841.55;;
16916;SDS011;8575;52.418;13.492;2022-11-02T01:55:32;905.97;;;843.53;;
16916;SDS011;8575;52.418;13.492;2022-11-02T01:55:54;904.00;;;841.58;;
16916;SDS011;8575;52.418;13.492;2022-11-02T01:56:18;912.40;;;849.80;;
16916;SDS011;8575;52.418;13.492;2022-11-02T01:56:40;902.38;;;840.08;;
16916;SDS011;8575;52.418;13.492;2022-11-02T01:57:04;904.90;;;842.20;;
16916;SDS011;8575;52.418;13.492;2022-11-02T01:57:27;909.00;;;846.33;;
16916;SDS011;8575;52.418;13.492;2022-11-02T01:57:51;898.80;;;836.58;;
16916;SDS011;8575;52.418;13.492;2022-11-02T01:58:14;897.78;;;835.58;;
16916;SDS011;8575;52.418;13.492;2022-11-02T01:58:35;910.53;;;847.88;;
16916;SDS011;8575;52.418;13.492;2022-11-02T01:58:57;894.58;;;832.47;;
16916;SDS011;8575;52.418;13.492;2022-11-02T01:59:22;906.22;;;843.72;;
16916;SDS011;8575;52.418;13.492;2022-11-02T01:59:47;900.00;;;837.70;;
16916;SDS011;8575;52.418;13.492;2022-11-02T02:00:12;897.47;;;835.28;;
16916;SDS011;8575;52.418;13.492;2022-11-02T02:00:35;909.20;;;846.58;;
16916;SDS011;8575;52.418;13.492;2022-11-02T02:00:58;912.30;;;849.58;;
16916;SDS011;8575;52.418;13.492;2022-11-02T02:01:19;892.08;;;830.00;;
16916;SDS011;8575;52.418;13.492;2022-11-02T02:01:41;900.60;;;838.15;;
16916;SDS011;8575;52.418;13.492;2022-11-02T02:02:03;913.95;;;851.15;;
16916;SDS011;8575;52.418;13.492;2022-11-02T02:02:25;910.83;;;848.25;;
16916;SDS011;8575;52.418;13.492;2022-11-02T02:02:49;893.45;;;831.30;;
16916;SDS011;8575;52.418;13.492;2022-11-02T02:03:13;888.40;;;826.47;;
16916;SDS011;8575;52.418;13.492;2022-11-02T02:03:39;907.60;;;845.00;;
16916;SDS011;8575;52.418;13.492;2022-11-02T02:04:03;913.03;;;850.25;;
16916;SDS011;8575;52.418;13.492;2022-11-02T02:04:29;900.75;;;838.53;;
16916;SDS011;8575;52.418;13.492;2022-11-02T02:04:56;893.67;;;831.60;;
16916;SDS011;8575;52.418;13.492;2022-11-02T02:05:19;912.05;;;849.33;;
16916;SDS011;8575;52.418;13.492;2022-11-02T02:05:45;909.63;;;847.08;;
16916;SDS011;8575;52.418;13.492;2022-11-02T02:06:12;916.22;;;853.42;;
16916;SDS011;8575;52.418;13.492;2022-11-02T02:06:37;916.53;;;853.75;;